Time;durP1;ratioP1;P1;durP2;ratioP2;P2;SDS_P1;SDS_P2;PMS_P1;PMS_P2;Temp;Humidity;BMP_temperature;BMP_pressure;BME280_temperature;BME280_humidity;BME280_pressure;Samples;Min_cycle;Max_cycle;Signal;HPM_P1;HPM_P2
2024/04/10 00:00:59;;;;;;;;;;;;;;;5.63;100.00;101530.66;5559330;25;19963;-69
2024/04/10 00:03:25;;;;;;;;;;;;;;;5.63;100.00;101535.94;5541304;25;19940;-68
2024/04/10 00:06:00;;;;;;;;;;;;;;;5.58;100.00;101538.06;5459597;26;19928;-70
2024/04/10 00:08:25;;;;;;;;;;;;;;;5.59;100.00;101542.41;5510940;25;19927;-70
2024/04/10 00:10:51;;;;;;;;;;;;;;;5.63;100.00;101543.84;5490977;26;20289;-69
2024/04/10 00:13:16;;;;;;;;;;;;;;;5.65;100.00;101543.75;5507492;25;19927;-69
2024/04/10 00:15:42;;;;;;;;;;;;;;;5.65;100.00;101547.22;5536670;25;20049;-69
2024/04/10 00:18:07;;;;;;;;;;;;;;;5.65;100.00;101549.88;5525321;26;20031;-69
2024/04/10 00:20:33;;;;;;;;;;;;;;;5.63;100.00;101557.06;5536581;25;19976;-69
2024/04/10 00:22:58;;;;;;;;;;;;;;;5.61;100.00;101548.41;5524253;25;19927;-69
2024/04/10 00:25:23;;;;;;;;;;;;;;;5.52;100.00;101544.66;5530058;25;20389;-71
2024/04/10 00:27:49;;;;;;;;;;;;;;;5.54;100.00;101553.31;5539851;25;20358;-69
2024/04/10 00:30:14;;;;;;;;;;;;;;;5.60;100.00;101554.66;5527013;25;20378;-70
2024/04/10 00:32:39;;;;;;;;;;;;;;;5.65;100.00;101555.16;5541544;25;20446;-70
2024/04/10 00:35:08;;;;;;;;;;;;;;;5.66;100.00;101548.91;5527735;25;20374;-70
2024/04/10 00:37:33;;;;;;;;;;;;;;;5.63;100.00;101548.31;5557634;25;19927;-69
2024/04/10 00:39:59;;;;;;;;;;;;;;;5.52;100.00;101543.81;5562537;25;19950;-70
2024/04/10 00:42:24;;;;;;;;;;;;;;;5.49;100.00;101544.88;5550928;25;20509;-69
2024/04/10 00:44:56;;;;;;;;;;;;;;;5.49;100.00;101544.88;5497006;26;19927;-68
2024/04/10 00:47:23;;;;;;;;;;;;;;;5.45;100.00;101546.03;5504436;25;19927;-69
2024/04/10 00:49:48;;;;;;;;;;;;;;;5.44;100.00;101549.63;5562977;25;19934;-68
2024/04/10 00:52:14;;;;;;;;;;;;;;;5.46;100.00;101555.63;5547827;25;19927;-69
2024/04/10 00:54:39;;;;;;;;;;;;;;;5.47;100.00;101549.41;5500847;25;19934;-69
2024/04/10 00:57:05;;;;;;;;;;;;;;;5.49;100.00;101559.84;5558521;25;19992;-70
2024/04/10 00:59:30;;;;;;;;;;;;;;;5.53;100.00;101569.28;5534982;25;20370;-69
2024/04/10 01:01:56;;;;;;;;;;;;;;;5.56;100.00;101572.53;5561923;25;20270;-69
2024/04/10 01:04:21;;;;;;;;;;;;;;;5.54;100.00;101574.44;5513199;25;20335;-69
2024/04/10 01:06:46;;;;;;;;;;;;;;;5.54;100.00;101578.88;5498703;26;19932;-70
2024/04/10 01:09:12;;;;;;;;;;;;;;;5.53;100.00;101582.47;5499791;26;19943;-70
2024/04/10 01:11:37;;;;;;;;;;;;;;;5.55;100.00;101576.13;5515312;25;19998;-69
2024/04/10 01:14:02;;;;;;;;;;;;;;;5.48;100.00;101579.28;5527215;25;19994;-71
2024/04/10 01:16:28;;;;;;;;;;;;;;;5.42;100.00;101569.19;5539819;25;19927;-69
2024/04/10 01:18:53;;;;;;;;;;;;;;;5.33;100.00;101569.84;5523996;26;19928;-67
2024/04/10 01:21:18;;;;;;;;;;;;;;;5.25;100.00;101567.75;5529163;25;20343;-70
2024/04/10 01:23:44;;;;;;;;;;;;;;;5.20;100.00;101560.16;5524398;26;19927;-69
2024/04/10 01:26:09;;;;;;;;;;;;;;;5.16;100.00;101571.88;5506958;25;20354;-70
2024/04/10 01:28:35;;;;;;;;;;;;;;;5.15;100.00;101564.91;5561719;25;19942;-69
2024/04/10 01:33:53;;;;;;;;;;;;;;;5.07;100.00;101569.88;5548048;25;20314;-68
2024/04/10 01:36:18;;;;;;;;;;;;;;;5.09;100.00;101567.13;5518957;25;19928;-71
2024/04/10 01:38:44;;;;;;;;;;;;;;;5.11;100.00;101576.63;5514354;25;20430;-69
2024/04/10 01:41:10;;;;;;;;;;;;;;;5.14;100.00;101581.69;5523342;25;20465;-69
2024/04/10 01:43:35;;;;;;;;;;;;;;;5.15;100.00;101578.09;5557223;25;19934;-70
2024/04/10 01:46:00;;;;;;;;;;;;;;;5.16;100.00;101579.78;5533730;25;20362;-69
2024/04/10 01:48:26;;;;;;;;;;;;;;;5.12;100.00;101577.47;5529439;25;20396;-71
2024/04/10 01:50:51;;;;;;;;;;;;;;;5.12;100.00;101577.47;5522083;25;20343;-70
2024/04/10 01:53:16;;;;;;;;;;;;;;;5.16;100.00;101577.16;5542702;25;19927;-68
2024/04/10 01:55:42;;;;;;;;;;;;;;;5.14;100.00;101575.56;5523718;26;19939;-69
2024/04/10 01:58:07;;;;;;;;;;;;;;;5.18;100.00;101577.03;5536164;25;19939;-70
2024/04/10 02:00:34;;;;;;;;;;;;;;;5.24;100.00;101585.41;5502173;26;19984;-68
2024/04/10 02:03:00;;;;;;;;;;;;;;;5.28;100.00;101589.50;5523787;25;20442;-70
2024/04/10 02:05:25;;;;;;;;;;;;;;;5.26;100.00;101585.28;5535194;25;19927;-69
2024/04/10 02:07:50;;;;;;;;;;;;;;;5.23;100.00;101581.06;5507791;26;20351;-69
2024/04/10 02:10:16;;;;;;;;;;;;;;;5.20;100.00;101573.38;5496532;25;19956;-71
2024/04/10 02:12:41;;;;;;;;;;;;;;;5.15;100.00;101554.34;5538351;25;19958;-69
2024/04/10 02:15:06;;;;;;;;;;;;;;;5.10;100.00;101556.47;5525797;25;19938;-70
2024/04/10 02:17:32;;;;;;;;;;;;;;;5.11;100.00;101559.94;5528378;26;19927;-69
2024/04/10 02:20:18;;;;;;;;;;;;;;;5.05;100.00;101561.22;5502283;25;19933;-69
2024/04/10 02:22:43;;;;;;;;;;;;;;;5.08;100.00;101552.25;5544165;25;19928;-68
2024/04/10 02:25:08;;;;;;;;;;;;;;;5.05;100.00;101542.75;5529960;25;19939;-71
2024/04/10 02:27:34;;;;;;;;;;;;;;;4.99;100.00;101551.09;5551338;25;20250;-68
2024/04/10 02:29:59;;;;;;;;;;;;;;;5.05;100.00;101558.59;5576182;25;19927;-69
2024/04/10 02:32:25;;;;;;;;;;;;;;;5.06;100.00;101565.56;5546503;25;20396;-70
2024/04/10 02:34:51;;;;;;;;;;;;;;;5.05;100.00;101560.38;5537940;25;20298;-68
2024/04/10 02:37:16;;;;;;;;;;;;;;;5.06;100.00;101556.78;5539499;25;19927;-68
2024/04/10 02:39:41;;;;;;;;;;;;;;;5.11;100.00;101550.22;5533986;25;20335;-73
2024/04/10 02:42:07;;;;;;;;;;;;;;;5.13;100.00;101536.91;5544112;25;19927;-67
2024/04/10 02:44:32;;;;;;;;;;;;;;;5.13;100.00;101544.84;5511209;25;19942;-69
2024/04/10 02:46:57;;;;;;;;;;;;;;;5.17;100.00;101562.16;5531252;25;19928;-70
2024/04/10 02:49:23;;;;;;;;;;;;;;;5.22;100.00;101554.78;5539590;25;19968;-70
2024/04/10 02:51:48;;;;;;;;;;;;;;;5.24;100.00;101556.34;5541221;25;20282;-71
2024/04/10 02:54:13;;;;;;;;;;;;;;;5.27;100.00;101550.00;5497432;26;20375;-70
2024/04/10 02:56:39;;;;;;;;;;;;;;;5.32;100.00;101547.03;5547466;25;20369;-70
2024/04/10 02:59:04;;;;;;;;;;;;;;;5.35;100.00;101549.44;5550690;25;20287;-68
2024/04/10 03:01:29;;;;;;;;;;;;;;;5.38;100.00;101551.88;5536999;25;19927;-69
2024/04/10 03:03:55;;;;;;;;;;;;;;;5.41;100.00;101551.63;5534267;25;19951;-71
2024/04/10 03:06:20;;;;;;;;;;;;;;;5.43;100.00;101544.44;5516613;25;19926;-72
2024/04/10 03:08:45;;;;;;;;;;;;;;;5.41;100.00;101547.19;5531025;25;20003;-72
2024/04/10 03:11:13;;;;;;;;;;;;;;;5.40;100.00;101544.66;5549908;25;19927;-70
2024/04/10 03:13:39;;;;;;;;;;;;;;;5.37;100.00;101551.03;5562729;25;19933;-68
2024/04/10 03:16:06;;;;;;;;;;;;;;;5.39;100.00;101551.75;5514084;25;19927;-68
2024/04/10 03:18:32;;;;;;;;;;;;;;;5.44;100.00;101551.41;5540016;25;19934;-71
2024/04/10 03:20:57;;;;;;;;;;;;;;;5.42;100.00;101548.03;5528444;25;19927;-69
2024/04/10 03:23:23;;;;;;;;;;;;;;;5.37;100.00;101548.38;5546081;25;20366;-69
2024/04/10 03:25:58;;;;;;;;;;;;;;;5.34;100.00;101550.41;5562494;25;20386;-69
2024/04/10 03:28:24;;;;;;;;;;;;;;;5.33;100.00;101546.06;5549519;25;19935;-69
2024/04/10 03:30:52;;;;;;;;;;;;;;;5.37;100.00;101556.31;5530582;25;19927;-69
2024/04/10 03:33:19;;;;;;;;;;;;;;;5.45;100.00;101563.66;5536518;25;19934;-68
2024/04/10 03:35:44;;;;;;;;;;;;;;;5.51;100.00;101571.19;5520350;25;19934;-68
2024/04/10 03:38:10;;;;;;;;;;;;;;;5.57;100.00;101574.22;5552571;25;19927;-68
2024/04/10 03:40:35;;;;;;;;;;;;;;;5.57;100.00;101557.53;5529620;25;19930;-69
2024/04/10 03:43:01;;;;;;;;;;;;;;;5.52;100.00;101554.38;5556282;25;19927;-70
2024/04/10 03:45:27;;;;;;;;;;;;;;;5.52;100.00;101549.09;5505064;25;19990;-68
2024/04/10 03:47:52;;;;;;;;;;;;;;;5.51;100.00;101555.34;5560939;25;19967;-70
2024/04/10 03:50:18;;;;;;;;;;;;;;;5.55;100.00;101549.72;5463807;26;20371;-69
2024/04/10 03:52:43;;;;;;;;;;;;;;;5.59;100.00;101553.81;5510445;26;19997;-71
2024/04/10 03:55:08;;;;;;;;;;;;;;;5.67;100.00;101553.25;5473171;26;19939;-70
2024/04/10 03:57:34;;;;;;;;;;;;;;;5.70;100.00;101554.81;5528382;26;19928;-68
2024/04/10 03:59:59;;;;;;;;;;;;;;;5.72;100.00;101552.91;5506482;25;19927;-68
2024/04/10 04:02:25;;;;;;;;;;;;;;;5.70;100.00;101546.91;5531512;25;19938;-69
2024/04/10 04:04:50;;;;;;;;;;;;;;;5.71;100.00;101548.56;5535752;25;19934;-68
2024/04/10 04:07:15;;;;;;;;;;;;;;;5.75;100.00;101545.59;5501288;25;20336;-70
2024/04/10 04:09:41;;;;;;;;;;;;;;;5.76;100.00;101555.22;5465477;26;19943;-68
2024/04/10 04:12:06;;;;;;;;;;;;;;;5.80;100.00;101551.41;5536481;25;19942;-68
2024/04/10 04:14:32;;;;;;;;;;;;;;;5.87;100.00;101560.56;5496150;26;19938;-70
2024/04/10 04:16:57;;;;;;;;;;;;;;;5.91;100.00;101555.94;5514377;25;19965;-68
2024/04/10 04:19:22;;;;;;;;;;;;;;;5.95;100.00;101556.53;5506161;25;19927;-70
2024/04/10 04:21:48;;;;;;;;;;;;;;;5.98;100.00;101565.09;5516399;26;19927;-68
2024/04/10 04:24:13;;;;;;;;;;;;;;;6.00;100.00;101567.63;5544963;25;19932;-71
2024/04/10 04:26:39;;;;;;;;;;;;;;;5.98;100.00;101559.81;5513967;25;19959;-70
2024/04/10 04:29:04;;;;;;;;;;;;;;;5.97;100.00;101554.63;5551428;25;19927;-70
2024/04/10 04:31:30;;;;;;;;;;;;;;;5.99;100.00;101545.63;5539144;25;19935;-70
2024/04/10 04:33:56;;;;;;;;;;;;;;;6.05;100.00;101550.44;5533769;25;19934;-72
2024/04/10 04:36:22;;;;;;;;;;;;;;;6.16;100.00;101547.03;5548598;25;20296;-68
2024/04/10 04:38:50;;;;;;;;;;;;;;;6.21;100.00;101535.13;5542973;25;19927;-68
2024/04/10 04:41:15;;;;;;;;;;;;;;;6.30;100.00;101536.22;5529021;25;19965;-70
2024/04/10 04:43:40;;;;;;;;;;;;;;;6.30;100.00;101544.16;5554395;25;19927;-70
2024/04/10 04:46:19;;;;;;;;;;;;;;;6.29;100.00;101534.53;5561117;25;19927;-73
2024/04/10 04:48:44;;;;;;;;;;;;;;;6.34;100.00;101532.38;5547720;25;19934;-72
2024/04/10 04:51:11;;;;;;;;;;;;;;;6.46;100.00;101542.06;5532329;25;19927;-70
2024/04/10 04:53:36;;;;;;;;;;;;;;;6.50;100.00;101527.63;5492056;25;19999;-69
2024/04/10 04:56:01;;;;;;;;;;;;;;;6.43;100.00;101515.84;5552948;25;19927;-73
2024/04/10 04:58:27;;;;;;;;;;;;;;;6.22;100.00;101475.13;5513350;25;19933;-71
2024/04/10 05:00:52;;;;;;;;;;;;;;;6.59;100.00;101520.78;5505062;26;19928;-72
2024/04/10 05:06:05;;;;;;;;;;;;;;;6.72;100.00;101539.22;5523099;26;19975;-70
2024/04/10 05:08:30;;;;;;;;;;;;;;;6.80;100.00;101534.16;5527465;25;19935;-68
2024/04/10 05:10:55;;;;;;;;;;;;;;;6.88;100.00;101536.22;5526390;25;20349;-68
2024/04/10 05:13:21;;;;;;;;;;;;;;;6.78;100.00;101542.22;5544138;25;19927;-72
2024/04/10 05:15:46;;;;;;;;;;;;;;;6.69;100.00;101550.06;5547959;25;19929;-71
2024/04/10 05:18:12;;;;;;;;;;;;;;;6.68;100.00;101545.72;5505666;25;20362;-71
2024/04/10 05:20:37;;;;;;;;;;;;;;;6.63;100.00;101543.41;5509196;25;20274;-69
2024/04/10 05:23:03;;;;;;;;;;;;;;;6.63;100.00;101540.75;5551328;25;19935;-67
2024/04/10 05:25:29;;;;;;;;;;;;;;;6.63;100.00;101542.56;5562551;25;20290;-74
2024/04/10 05:27:55;;;;;;;;;;;;;;;6.64;100.00;101538.94;5500992;25;19953;-70
2024/04/10 05:30:20;;;;;;;;;;;;;;;6.69;100.00;101539.47;5509787;25;19927;-69
2024/04/10 05:32:49;;;;;;;;;;;;;;;6.78;100.00;101541.38;5539732;25;19927;-72
2024/04/10 05:35:17;;;;;;;;;;;;;;;6.93;100.00;101545.47;5498626;25;19942;-74
2024/04/10 05:37:44;;;;;;;;;;;;;;;7.06;100.00;101527.66;5565355;25;19934;-71
2024/04/10 05:40:13;;;;;;;;;;;;;;;7.20;100.00;101528.38;5549129;25;20349;-72
2024/04/10 05:42:40;;;;;;;;;;;;;;;7.31;100.00;101536.31;5495071;26;20389;-71
2024/04/10 05:45:09;;;;;;;;;;;;;;;7.41;100.00;101529.31;5502694;25;19927;-70
2024/04/10 05:47:38;;;;;;;;;;;;;;;7.50;100.00;101533.84;5504525;25;19935;-71
2024/04/10 05:50:04;;;;;;;;;;;;;;;7.55;100.00;101525.56;5521358;25;20297;-70
2024/04/10 05:52:30;;;;;;;;;;;;;;;7.57;100.00;101527.13;5546283;25;19934;-70
2024/04/10 05:54:56;;;;;;;;;;;;;;;7.65;100.00;101529.97;5524547;26;19927;-67
2024/04/10 05:57:22;;;;;;;;;;;;;;;7.69;100.00;101534.06;5525007;26;19982;-69
2024/04/10 05:59:51;;;;;;;;;;;;;;;7.77;100.00;101531.63;5526328;26;19932;-67
2024/04/10 06:02:16;;;;;;;;;;;;;;;7.89;100.00;101528.94;5495572;26;20546;-73
2024/04/10 06:04:42;;;;;;;;;;;;;;;7.96;100.00;101519.50;5525513;26;19927;-70
2024/04/10 06:07:07;;;;;;;;;;;;;;;8.05;100.00;101524.03;5525544;26;19934;-69
2024/04/10 06:09:32;;;;;;;;;;;;;;;8.14;100.00;101510.03;5492765;26;19935;-67
2024/04/10 06:11:58;;;;;;;;;;;;;;;8.23;100.00;101524.31;5524580;26;19999;-69
2024/04/10 06:14:25;;;;;;;;;;;;;;;8.27;100.00;101526.59;5524088;26;19928;-69
2024/04/10 06:16:50;;;;;;;;;;;;;;;8.32;100.00;101529.69;5524599;26;19964;-71
2024/04/10 06:19:15;;;;;;;;;;;;;;;8.38;100.00;101509.78;5525613;26;19928;-68
2024/04/10 06:21:41;;;;;;;;;;;;;;;8.47;100.00;101498.41;5492227;26;19972;-70
2024/04/10 06:24:07;;;;;;;;;;;;;;;8.66;100.00;101497.63;5524308;26;20407;-69
2024/04/10 06:26:32;;;;;;;;;;;;;;;8.78;100.00;101493.94;5492076;26;19997;-70
2024/04/10 06:28:58;;;;;;;;;;;;;;;8.80;100.00;101488.50;5524270;26;19939;-68
2024/04/10 06:31:23;;;;;;;;;;;;;;;8.81;100.00;101490.19;5492107;26;19927;-74
2024/04/10 06:33:50;;;;;;;;;;;;;;;8.92;100.00;101480.28;5493050;26;19959;-71
2024/04/10 06:36:19;;;;;;;;;;;;;;;9.05;100.00;101481.88;5491680;26;19934;-67
2024/04/10 06:38:44;;;;;;;;;;;;;;;9.20;100.00;101470.72;5523785;26;19928;-69
2024/04/10 06:41:09;;;;;;;;;;;;;;;9.35;100.00;101473.00;5491357;26;19933;-66
2024/04/10 06:43:35;;;;;;;;;;;;;;;9.48;100.00;101474.41;5523695;26;19927;-66
2024/04/10 06:46:02;;;;;;;;;;;;;;;9.51;100.00;101478.59;5491606;26;19928;-68
2024/04/10 06:48:28;;;;;;;;;;;;;;;9.50;100.00;101472.44;5524061;26;19927;-67
2024/04/10 06:51:00;;;;;;;;;;;;;;;9.44;100.00;101478.31;5525343;26;19927;-68
2024/04/10 06:53:26;;;;;;;;;;;;;;;9.48;100.00;101470.91;5524151;26;20375;-65
2024/04/10 06:56:00;;;;;;;;;;;;;;;9.57;100.00;101470.94;5524769;26;20266;-69
2024/04/10 06:58:26;;;;;;;;;;;;;;;9.68;100.00;101464.63;5490708;26;20291;-71
2024/04/10 07:00:58;;;;;;;;;;;;;;;9.80;100.00;101465.31;5491177;26;19955;-70
2024/04/10 07:03:27;;;;;;;;;;;;;;;9.99;100.00;101462.66;5523834;26;20383;-70
2024/04/10 07:06:05;;;;;;;;;;;;;;;10.18;100.00;101464.47;5524823;26;19960;-65
2024/04/10 07:08:31;;;;;;;;;;;;;;;10.31;100.00;101466.84;5524219;26;19928;-66
2024/04/10 07:10:56;;;;;;;;;;;;;;;10.44;100.00;101467.38;5523817;26;20273;-67
2024/04/10 07:13:23;;;;;;;;;;;;;;;10.52;100.00;101464.84;5524254;26;20244;-69
2024/04/10 07:15:56;;;;;;;;;;;;;;;10.63;100.00;101461.97;5524750;25;19927;-67
2024/04/10 07:18:21;;;;;;;;;;;;;;;10.73;100.00;101452.16;5523912;26;19936;-70
2024/04/10 07:20:56;;;;;;;;;;;;;;;10.88;100.00;101455.16;5527293;25;19928;-66
2024/04/10 07:23:22;;;;;;;;;;;;;;;10.99;100.00;101446.97;5557331;25;19931;-69
2024/04/10 07:25:47;;;;;;;;;;;;;;;11.05;100.00;101445.53;5528440;25;19935;-69
2024/04/10 07:28:12;;;;;;;;;;;;;;;11.09;100.00;101441.59;5548152;25;19964;-64
2024/04/10 07:30:38;;;;;;;;;;;;;;;11.19;100.00;101431.69;5560869;25;20328;-69
2024/04/10 07:33:04;;;;;;;;;;;;;;;11.30;100.00;101430.66;5562829;25;19934;-68
2024/04/10 07:35:30;;;;;;;;;;;;;;;11.46;100.00;101438.81;5562904;25;20290;-70
2024/04/10 07:37:55;;;;;;;;;;;;;;;11.61;100.00;101431.97;5525052;25;20004;-69
2024/04/10 07:40:21;;;;;;;;;;;;;;;11.79;100.00;101430.13;5538373;25;19934;-68
2024/04/10 07:42:46;;;;;;;;;;;;;;;11.95;100.00;101421.44;5528240;25;19926;-70
2024/04/10 07:45:11;;;;;;;;;;;;;;;11.98;98.82;101423.78;5527417;25;20362;-71
2024/04/10 07:47:37;;;;;;;;;;;;;;;12.01;99.26;101431.47;5557279;25;20407;-70
2024/04/10 07:50:02;;;;;;;;;;;;;;;12.06;100.00;101420.31;5560843;25;19927;-69
2024/04/10 07:52:28;;;;;;;;;;;;;;;12.12;99.71;101416.19;5560539;25;19935;-70
2024/04/10 07:54:54;;;;;;;;;;;;;;;12.21;99.65;101417.94;5527411;25;19934;-70
2024/04/10 07:57:19;;;;;;;;;;;;;;;12.26;99.46;101410.28;5560404;25;20393;-70
2024/04/10 07:59:46;;;;;;;;;;;;;;;12.31;99.64;101407.97;5560233;25;20374;-70
2024/04/10 08:02:11;;;;;;;;;;;;;;;12.31;99.34;101407.97;5560109;25;20371;-71
2024/04/10 08:04:37;;;;;;;;;;;;;;;12.25;100.00;101404.09;5560986;25;19995;-69
2024/04/10 08:07:03;;;;;;;;;;;;;;;12.21;100.00;101413.44;5560380;25;19995;-72
2024/04/10 08:09:28;;;;;;;;;;;;;;;12.21;100.00;101401.91;5497238;25;19939;-68
2024/04/10 08:11:54;;;;;;;;;;;;;;;12.29;100.00;101404.63;5560069;25;19934;-70
2024/04/10 08:14:19;;;;;;;;;;;;;;;12.41;100.00;101403.34;5560235;25;19938;-71
2024/04/10 08:16:44;;;;;;;;;;;;;;;12.50;99.82;101399.75;5527096;25;19954;-70
2024/04/10 08:19:10;;;;;;;;;;;;;;;12.56;99.09;101393.75;5559913;25;20014;-70
2024/04/10 08:21:36;;;;;;;;;;;;;;;12.67;98.50;101388.09;5559388;25;20003;-69
2024/04/10 08:24:02;;;;;;;;;;;;;;;12.74;98.43;101382.97;5560297;25;19938;-67
2024/04/10 08:26:28;;;;;;;;;;;;;;;12.81;97.91;101375.97;5527479;25;20075;-71
2024/04/10 08:28:56;;;;;;;;;;;;;;;12.89;98.20;101369.81;5559966;25;19927;-71
2024/04/10 08:31:27;;;;;;;;;;;;;;;12.92;97.84;101370.31;5559324;25;19926;-71
2024/04/10 08:33:54;;;;;;;;;;;;;;;12.94;97.83;101351.44;5527363;25;19934;-71
2024/04/10 08:36:20;;;;;;;;;;;;;;;12.86;97.85;101322.88;5559562;25;19959;-69
2024/04/10 08:38:46;;;;;;;;;;;;;;;13.05;98.15;101355.66;5560984;25;19927;-71
2024/04/10 08:41:15;;;;;;;;;;;;;;;13.08;98.04;101348.16;5561821;25;19934;-68
2024/04/10 08:43:44;;;;;;;;;;;;;;;13.13;98.01;101348.47;5560676;25;20026;-68
2024/04/10 08:46:11;;;;;;;;;;;;;;;13.09;97.93;101344.47;5554036;25;19942;-72
2024/04/10 08:48:38;;;;;;;;;;;;;;;13.07;98.50;101345.63;5551767;25;19927;-71
2024/04/10 08:51:04;;;;;;;;;;;;;;;13.05;99.10;101345.81;5555433;25;20354;-70
2024/04/10 08:53:33;;;;;;;;;;;;;;;13.08;98.87;101340.13;5524483;25;20511;-71
2024/04/10 08:55:58;;;;;;;;;;;;;;;13.21;99.19;101337.81;5526769;26;19938;-70
2024/04/10 08:58:24;;;;;;;;;;;;;;;13.39;98.67;101334.16;5527129;26;20359;-69
2024/04/10 09:00:49;;;;;;;;;;;;;;;13.53;96.91;101325.44;5526516;26;19928;-74
2024/04/10 09:03:15;;;;;;;;;;;;;;;13.64;96.64;101327.81;5526442;26;19935;-72
2024/04/10 09:05:40;;;;;;;;;;;;;;;13.73;96.54;101324.09;5493937;26;19934;-72
2024/04/10 09:08:06;;;;;;;;;;;;;;;13.72;95.72;101314.41;5525533;26;19927;-69
2024/04/10 09:10:32;;;;;;;;;;;;;;;13.78;95.80;101310.22;5525888;26;19969;-70
2024/04/10 09:13:01;;;;;;;;;;;;;;;13.89;96.33;101315.22;5494038;26;19927;-71
2024/04/10 09:15:26;;;;;;;;;;;;;;;13.89;95.30;101315.22;5525579;26;19927;-71
2024/04/10 09:17:54;;;;;;;;;;;;;;;13.89;95.23;101310.69;5525652;26;19934;-70
2024/04/10 09:20:19;;;;;;;;;;;;;;;13.97;95.67;101303.66;5525429;26;19935;-72
2024/04/10 09:22:56;;;;;;;;;;;;;;;14.06;94.72;101297.25;5525262;26;19934;-70
2024/04/10 09:25:22;;;;;;;;;;;;;;;14.09;94.92;101299.59;5525433;26;19943;-69
2024/04/10 09:27:47;;;;;;;;;;;;;;;14.10;94.28;101288.69;5527206;26;20517;-71
2024/04/10 09:30:13;;;;;;;;;;;;;;;14.16;94.53;101292.53;5527655;26;19928;-72
2024/04/10 09:32:38;;;;;;;;;;;;;;;14.28;94.93;101288.47;5532131;26;20495;-72
2024/04/10 09:35:07;;;;;;;;;;;;;;;14.52;94.35;101291.06;5529775;26;19934;-71
2024/04/10 09:37:41;;;;;;;;;;;;;;;14.73;93.51;101281.56;5533359;26;19938;-73
2024/04/10 09:40:06;;;;;;;;;;;;;;;14.92;90.42;101281.09;5492533;26;19928;-72
2024/04/10 09:42:32;;;;;;;;;;;;;;;14.95;89.67;101278.06;5527177;26;19927;-70
2024/04/10 09:45:11;;;;;;;;;;;;;;;15.01;89.49;101271.97;5525329;26;19927;-71
2024/04/10 09:47:39;;;;;;;;;;;;;;;15.13;89.38;101273.25;5492508;26;20399;-75
2024/04/10 09:50:07;;;;;;;;;;;;;;;15.31;89.35;101264.03;5524783;26;19942;-72
2024/04/10 09:52:33;;;;;;;;;;;;;;;15.40;87.95;101262.97;5492310;26;19999;-71
2024/04/10 09:54:59;;;;;;;;;;;;;;;15.49;87.89;101259.19;5492236;26;19927;-71
2024/04/10 09:57:24;;;;;;;;;;;;;;;15.50;87.46;101252.78;5526796;26;20295;-71
2024/04/10 09:59:50;;;;;;;;;;;;;;;15.58;88.45;101243.81;5527185;26;19935;-71
2024/04/10 10:02:17;;;;;;;;;;;;;;;15.69;88.32;101240.72;5524153;26;20010;-71
2024/04/10 10:04:42;;;;;;;;;;;;;;;15.83;86.89;101244.41;5492073;26;19927;-72
2024/04/10 10:07:08;;;;;;;;;;;;;;;15.92;86.32;101233.41;5524500;26;19934;-72
2024/04/10 10:09:34;;;;;;;;;;;;;;;16.02;86.14;101236.63;5523685;26;19934;-72
2024/04/10 10:11:59;;;;;;;;;;;;;;;16.02;86.18;101225.91;5524054;26;19935;-71
2024/04/10 10:14:25;;;;;;;;;;;;;;;16.04;86.49;101228.41;5525224;26;20455;-72
2024/04/10 10:16:50;;;;;;;;;;;;;;;16.10;86.53;101230.31;5524626;26;19927;-73
2024/04/10 10:19:21;;;;;;;;;;;;;;;16.20;86.86;101228.19;5524576;26;20263;-72
2024/04/10 10:21:47;;;;;;;;;;;;;;;16.28;85.38;101224.56;5525470;26;19927;-69
2024/04/10 10:24:13;;;;;;;;;;;;;;;16.30;85.55;101212.59;5524774;26;20055;-70
2024/04/10 10:26:38;;;;;;;;;;;;;;;16.19;85.57;101221.16;5550125;25;19959;-70
2024/04/10 10:29:04;;;;;;;;;;;;;;;16.14;86.46;101212.81;5562098;25;19958;-71
2024/04/10 10:31:31;;;;;;;;;;;;;;;16.08;86.60;101209.03;5562795;25;19939;-73
2024/04/10 10:34:01;;;;;;;;;;;;;;;15.94;87.77;101206.38;5525768;25;19927;-72
2024/04/10 10:36:30;;;;;;;;;;;;;;;15.90;88.33;101205.03;5463152;26;19938;-71
2024/04/10 10:39:05;;;;;;;;;;;;;;;15.94;88.47;101207.19;5524091;26;19931;-70
2024/04/10 10:41:30;;;;;;;;;;;;;;;16.03;88.40;101205.22;5526000;26;19927;-69
2024/04/10 10:44:00;;;;;;;;;;;;;;;15.98;88.44;101203.13;5497173;26;19927;-71
2024/04/10 10:46:27;;;;;;;;;;;;;;;16.03;88.42;101205.22;5464516;26;19935;-68
2024/04/10 10:48:59;;;;;;;;;;;;;;;16.11;88.05;101197.91;5496376;26;19935;-71
2024/04/10 10:51:25;;;;;;;;;;;;;;;16.23;87.87;101184.81;5493197;26;19927;-71
2024/04/10 10:53:57;;;;;;;;;;;;;;;16.36;87.18;101189.50;5524897;26;19996;-69
2024/04/10 10:56:26;;;;;;;;;;;;;;;16.45;87.15;101174.91;5434880;26;19931;-70
2024/04/10 10:58:51;;;;;;;;;;;;;;;16.57;87.01;101159.94;5493039;26;19995;-71
2024/04/10 11:01:17;;;;;;;;;;;;;;;16.72;86.92;101160.72;5526652;26;19943;-70
2024/04/10 11:03:43;;;;;;;;;;;;;;;16.85;85.48;101157.34;5523946;26;19927;-69
2024/04/10 11:06:09;;;;;;;;;;;;;;;16.89;85.57;101158.63;5493361;26;19940;-69
2024/04/10 11:08:35;;;;;;;;;;;;;;;16.91;86.31;101140.41;5525776;26;20325;-70
2024/04/10 11:11:00;;;;;;;;;;;;;;;16.93;87.04;101149.13;5491870;26;20282;-66
2024/04/10 11:13:26;;;;;;;;;;;;;;;16.99;87.08;101137.56;5493206;26;19934;-70
2024/04/10 11:15:57;;;;;;;;;;;;;;;17.00;87.63;101133.84;5524217;26;19928;-71
2024/04/10 11:18:22;;;;;;;;;;;;;;;17.07;88.40;101133.94;5524729;26;19943;-68
2024/04/10 11:20:48;;;;;;;;;;;;;;;17.22;88.29;101126.56;5525586;26;19927;-69
2024/04/10 11:23:13;;;;;;;;;;;;;;;17.36;87.96;101127.50;5528170;26;19935;-70
2024/04/10 11:25:39;;;;;;;;;;;;;;;17.49;87.79;101110.56;5498728;26;19942;-69
2024/04/10 11:28:04;;;;;;;;;;;;;;;17.56;87.37;101117.66;5535765;25;19952;-72
2024/04/10 11:30:30;;;;;;;;;;;;;;;17.68;87.37;101109.03;5490240;26;19927;-68
2024/04/10 11:32:58;;;;;;;;;;;;;;;17.82;87.21;101105.34;5525607;26;19928;-68
2024/04/10 11:36:51;;;;;;;;;;;;;;;18.02;86.96;101100.88;5580493;25;19927;-67
2024/04/10 11:39:16;;;;;;;;;;;;;;;18.19;86.32;101094.06;5582347;25;20086;-69
2024/04/10 11:41:42;;;;;;;;;;;;;;;18.32;85.97;101095.13;5581504;25;19927;-69
2024/04/10 11:44:08;;;;;;;;;;;;;;;18.37;85.35;101087.25;5546835;25;20049;-69
2024/04/10 11:46:33;;;;;;;;;;;;;;;18.42;85.25;101084.75;5579805;25;19934;-69
2024/04/10 11:48:59;;;;;;;;;;;;;;;18.46;85.22;101081.44;5546613;25;19994;-70
2024/04/10 11:51:24;;;;;;;;;;;;;;;18.54;85.36;101070.47;5580371;25;19927;-69
2024/04/10 11:53:50;;;;;;;;;;;;;;;18.56;84.69;101068.41;5546820;25;20422;-69
2024/04/10 11:56:15;;;;;;;;;;;;;;;18.58;84.53;101062.78;5579323;25;19958;-68
2024/04/10 11:58:41;;;;;;;;;;;;;;;18.64;85.06;101058.47;5546432;25;20346;-68
2024/04/10 12:01:06;;;;;;;;;;;;;;;18.68;85.00;101057.84;5579655;25;19935;-70
2024/04/10 12:03:31;;;;;;;;;;;;;;;18.69;85.54;101059.50;5579950;25;20282;-71
2024/04/10 12:06:04;;;;;;;;;;;;;;;18.70;85.90;101047.66;5546630;25;19927;-68
2024/04/10 12:08:29;;;;;;;;;;;;;;;18.71;85.90;101033.13;5548172;25;19934;-68
2024/04/10 12:10:57;;;;;;;;;;;;;;;18.52;86.14;101005.13;5578927;25;19939;-68
2024/04/10 12:13:23;;;;;;;;;;;;;;;18.75;86.58;101030.84;5579390;25;19991;-69
2024/04/10 12:15:49;;;;;;;;;;;;;;;18.80;86.35;101029.19;5560694;25;20405;-69
2024/04/10 12:18:14;;;;;;;;;;;;;;;18.84;86.38;101030.44;5549807;25;20767;-70
2024/04/10 12:20:39;;;;;;;;;;;;;;;18.88;86.65;101026.25;5554308;25;19927;-71
2024/04/10 12:23:05;;;;;;;;;;;;;;;18.92;85.94;101021.28;5555141;25;20048;-68
2024/04/10 12:25:30;;;;;;;;;;;;;;;18.98;86.43;101014.19;5494137;25;19995;-69
2024/04/10 12:28:08;;;;;;;;;;;;;;;19.02;86.32;101008.16;5527403;25;20031;-71
2024/04/10 12:30:33;;;;;;;;;;;;;;;19.09;85.65;101000.06;5525495;25;19953;-71
2024/04/10 12:32:59;;;;;;;;;;;;;;;19.17;85.77;100992.53;5559435;25;19935;-70
2024/04/10 12:38:08;;;;;;;;;;;;;;;19.34;84.25;100978.53;5532414;25;19927;-69
2024/04/10 12:40:35;;;;;;;;;;;;;;;19.46;84.14;100969.56;5511085;25;19933;-68